Time;durP1;ratioP1;P1;durP2;ratioP2;P2;SDS_P1;SDS_P2;PMS_P1;PMS_P2;Temp;Humidity;BMP_temperature;BMP_pressure;BME280_temperature;BME280_humidity;BME280_pressure;Samples;Min_cycle;Max_cycle;Signal;HPM_P1;HPM_P2
2021/01/15 00:01:23;;;;;;;6.95;5.80;;;0.50;99.90;;;;;;4935395;29;20193;-72
2021/01/15 00:03:50;;;;;;;7.40;5.38;;;0.00;99.90;;;;;;4936411;29;20634;-73
2021/01/15 00:06:22;;;;;;;7.18;5.20;;;0.50;99.90;;;;;;4947207;29;20613;-72
2021/01/15 00:08:49;;;;;;;7.32;5.22;;;0.30;99.90;;;;;;4948016;28;20208;-72
2021/01/15 00:11:17;;;;;;;7.85;5.50;;;0.40;99.90;;;;;;4950479;29;20232;-72
2021/01/15 00:13:43;;;;;;;8.60;6.13;;;-0.10;99.90;;;;;;4928317;29;20188;-72
2021/01/15 00:16:25;;;;;;;6.60;5.20;;;0.50;99.90;;;;;;4927908;29;20228;-72
2021/01/15 00:18:55;;;;;;;9.60;5.97;;;0.10;99.90;;;;;;4946342;28;20219;-73
2021/01/15 00:21:27;;;;;;;7.35;5.20;;;0.40;99.90;;;;;;4954185;29;20184;-73
2021/01/15 00:23:57;;;;;;;8.55;5.85;;;0.20;99.90;;;;;;4946385;29;20235;-72
2021/01/15 00:26:25;;;;;;;10.43;6.07;;;0.30;99.90;;;;;;4942840;29;20188;-72
2021/01/15 00:28:53;;;;;;;7.47;5.50;;;0.00;99.90;;;;;;4942625;29;20567;-72
2021/01/15 00:31:28;;;;;;;7.28;5.00;;;0.10;99.90;;;;;;4946397;29;20689;-72
2021/01/15 00:33:54;;;;;;;7.65;5.95;;;-0.20;99.90;;;;;;4955351;28;20242;-72
2021/01/15 00:36:20;;;;;;;6.10;5.00;;;0.00;99.90;;;;;;4927610;29;20646;-72
2021/01/15 00:38:46;;;;;;;7.53;6.03;;;-0.40;99.90;;;;;;4941929;29;20446;-72
2021/01/15 00:41:12;;;;;;;6.70;6.00;;;0.10;99.90;;;;;;4938029;29;20201;-72
2021/01/15 00:43:38;;;;;;;7.80;5.43;;;-0.50;99.90;;;;;;4955245;28;20423;-72
2021/01/15 00:46:07;;;;;;;8.50;6.15;;;-0.10;99.90;;;;;;4946347;29;20583;-73
2021/01/15 00:48:38;;;;;;;8.07;5.75;;;-0.10;99.90;;;;;;4936741;29;20208;-72
2021/01/15 00:51:11;;;;;;;7.88;5.82;;;-0.10;99.90;;;;;;4934812;29;20263;-72
2021/01/15 00:53:39;;;;;;;6.82;5.72;;;0.00;99.90;;;;;;4939075;29;20233;-72
2021/01/15 00:56:05;;;;;;;9.38;5.45;;;0.00;99.90;;;;;;4930284;29;20282;-72
2021/01/15 00:58:31;;;;;;;8.13;6.45;;;-0.20;99.90;;;;;;4945472;29;20220;-72
2021/01/15 01:00:58;;;;;;;7.22;6.10;;;-0.10;99.90;;;;;;4947574;28;20192;-72
2021/01/15 01:03:37;;;;;;;8.75;6.13;;;-0.20;99.90;;;;;;4938022;29;20184;-72
2021/01/15 01:06:12;;;;;;;10.80;5.85;;;-0.30;99.90;;;;;;4940105;28;20200;-72
2021/01/15 01:08:38;;;;;;;12.13;7.20;;;-0.10;99.90;;;;;;4945420;29;20242;-72
2021/01/15 01:11:09;;;;;;;10.25;6.78;;;-0.30;99.90;;;;;;4954580;28;20232;-72
2021/01/15 01:13:35;;;;;;;9.68;6.40;;;-0.70;99.90;;;;;;4945653;29;20192;-72
2021/01/15 01:16:01;;;;;;;8.70;6.20;;;-0.60;99.90;;;;;;4953603;29;20198;-72
2021/01/15 01:18:27;;;;;;;10.73;7.35;;;-0.30;99.90;;;;;;4944948;29;20275;-72
2021/01/15 01:20:56;;;;;;;10.95;6.30;;;-0.10;99.90;;;;;;4943201;28;20184;-72
2021/01/15 01:23:27;;;;;;;8.25;6.43;;;-0.20;99.90;;;;;;4943479;29;20199;-72
2021/01/15 01:25:53;;;;;;;9.55;6.65;;;-0.20;99.90;;;;;;4954063;29;20228;-72
2021/01/15 01:28:21;;;;;;;11.90;7.18;;;-0.30;99.90;;;;;;4954506;28;20243;-72
2021/01/15 01:30:47;;;;;;;11.98;6.90;;;-0.10;99.90;;;;;;4916612;29;20201;-72
2021/01/15 01:33:13;;;;;;;8.98;6.65;;;-0.30;99.90;;;;;;4943303;29;20259;-72
2021/01/15 01:35:39;;;;;;;11.15;7.43;;;-0.20;99.90;;;;;;4945152;29;20176;-72
2021/01/15 01:38:06;;;;;;;9.30;6.80;;;0.00;99.90;;;;;;4954539;28;20649;-72
2021/01/15 01:40:32;;;;;;;12.32;6.97;;;-0.60;99.90;;;;;;4953174;29;20526;-72
2021/01/15 01:42:58;;;;;;;10.80;7.82;;;-0.10;99.90;;;;;;4953563;29;20561;-72
2021/01/15 01:45:26;;;;;;;11.68;7.93;;;0.00;99.90;;;;;;4938903;28;20193;-72
2021/01/15 01:47:57;;;;;;;14.00;8.77;;;0.00;99.90;;;;;;4921540;29;20207;-73
2021/01/15 01:50:25;;;;;;;13.57;8.93;;;0.10;99.90;;;;;;4951543;29;20685;-72
2021/01/15 01:52:52;;;;;;;15.45;9.90;;;0.50;99.90;;;;;;4953225;29;20184;-73
2021/01/15 01:55:21;;;;;;;17.98;9.20;;;0.50;99.90;;;;;;4954216;28;20164;-72
2021/01/15 01:57:48;;;;;;;15.35;9.77;;;0.60;99.90;;;;;;4943489;28;20249;-73
2021/01/15 02:00:14;;;;;;;14.95;9.50;;;0.40;99.90;;;;;;4948530;29;20527;-73
2021/01/15 02:02:40;;;;;;;16.85;9.80;;;0.80;99.90;;;;;;4946507;28;20608;-73
2021/01/15 02:05:08;;;;;;;15.43;9.75;;;0.60;99.90;;;;;;4953346;29;20255;-72
2021/01/15 02:07:35;;;;;;;14.07;9.00;;;0.70;99.90;;;;;;4952463;28;20212;-73
2021/01/15 02:10:07;;;;;;;19.20;9.90;;;0.90;99.90;;;;;;4949601;28;20323;-72
2021/01/15 02:12:55;;;;;;;17.65;10.55;;;1.00;99.90;;;;;;4944308;28;20298;-73
2021/01/15 02:15:30;;;;;;;17.27;10.13;;;1.10;99.90;;;;;;4956812;29;20195;-73
2021/01/15 02:18:01;;;;;;;16.00;11.63;;;1.00;99.90;;;;;;4956805;29;20238;-72
2021/01/15 02:20:30;;;;;;;16.25;10.55;;;1.10;99.90;;;;;;4958316;28;20662;-72
2021/01/15 02:23:08;;;;;;;15.32;9.70;;;1.20;99.90;;;;;;4953508;29;20192;-72
2021/01/15 02:26:04;;;;;;;16.65;9.90;;;1.20;99.90;;;;;;4945878;29;20207;-74
2021/01/15 02:28:51;;;;;;;15.20;8.95;;;0.90;99.90;;;;;;4949475;29;20208;-72
2021/01/15 02:31:35;;;;;;;15.18;9.80;;;1.20;99.90;;;;;;4937669;29;20189;-72
2021/01/15 02:34:22;;;;;;;14.77;9.32;;;1.40;99.90;;;;;;4937431;29;20200;-73
2021/01/15 02:37:25;;;;;;;16.40;9.35;;;1.50;99.90;;;;;;4937208;29;20199;-72
2021/01/15 02:40:06;;;;;;;11.95;9.00;;;1.50;99.90;;;;;;4956327;29;20203;-72
2021/01/15 02:42:36;;;;;;;14.00;9.32;;;1.60;99.90;;;;;;4957509;28;20193;-72
2021/01/15 02:45:10;;;;;;;15.18;10.02;;;1.50;99.90;;;;;;4942325;29;20207;-73
2021/01/15 02:47:56;;;;;;;17.83;8.40;;;1.60;99.90;;;;;;4948443;29;20909;-72
2021/01/15 02:50:24;;;;;;;11.07;8.63;;;1.50;99.90;;;;;;4950933;29;20215;-72
2021/01/15 02:52:51;;;;;;;13.30;9.13;;;1.50;99.90;;;;;;4949353;28;20214;-72
2021/01/15 02:55:17;;;;;;;13.25;8.27;;;1.40;99.90;;;;;;4956408;29;20200;-73
2021/01/15 02:57:44;;;;;;;13.40;9.65;;;1.70;99.90;;;;;;4955445;29;20690;-73
2021/01/15 03:00:14;;;;;;;13.38;9.15;;;1.30;99.90;;;;;;4942221;29;20191;-72
2021/01/15 03:03:11;;;;;;;11.88;8.52;;;1.90;99.90;;;;;;4957355;28;20176;-73
2021/01/15 03:05:41;;;;;;;10.70;8.23;;;1.80;99.90;;;;;;4957402;28;20180;-72
2021/01/15 03:08:08;;;;;;;16.35;9.15;;;1.80;99.90;;;;;;4933549;29;20685;-72
2021/01/15 03:10:36;;;;;;;10.85;8.85;;;2.00;99.90;;;;;;4955688;29;20259;-72
2021/01/15 03:13:05;;;;;;;11.73;8.75;;;1.90;99.90;;;;;;4955995;29;20171;-72
2021/01/15 03:15:36;;;;;;;15.40;9.32;;;1.90;99.90;;;;;;4941168;29;20200;-72
2021/01/15 03:18:06;;;;;;;12.68;8.68;;;1.90;99.90;;;;;;4940706;29;20638;-73
2021/01/15 03:20:32;;;;;;;13.13;8.15;;;1.40;99.90;;;;;;4913369;29;20213;-72
2021/01/15 03:22:58;;;;;;;15.80;8.90;;;2.00;99.90;;;;;;4954176;29;20238;-73
2021/01/15 03:25:24;;;;;;;12.45;9.15;;;2.00;99.90;;;;;;4949215;28;20211;-73
2021/01/15 03:27:54;;;;;;;12.60;8.15;;;1.80;99.90;;;;;;4953068;29;20792;-73
2021/01/15 03:30:23;;;;;;;12.93;8.68;;;2.10;99.90;;;;;;4957144;28;20281;-72
2021/01/15 03:32:52;;;;;;;13.07;9.07;;;2.00;99.90;;;;;;4957168;23;20334;-72
2021/01/15 03:35:25;;;;;;;10.43;9.00;;;1.90;99.90;;;;;;4955577;28;20184;-72
2021/01/15 03:38:03;;;;;;;12.20;7.88;;;2.00;99.90;;;;;;4942771;28;20203;-72
2021/01/15 03:40:48;;;;;;;12.38;8.40;;;2.10;99.90;;;;;;4942918;29;20197;-72
2021/01/15 03:43:23;;;;;;;14.32;10.55;;;2.10;99.90;;;;;;4943390;28;20188;-72
2021/01/15 03:45:52;;;;;;;15.00;9.82;;;2.10;99.90;;;;;;4964819;28;20199;-72
2021/01/15 03:48:21;;;;;;;13.38;8.98;;;2.00;99.90;;;;;;4952099;29;20231;-72
2021/01/15 03:50:48;;;;;;;13.50;9.10;;;2.20;99.90;;;;;;4958555;28;20240;-73
2021/01/15 03:53:15;;;;;;;12.90;8.65;;;2.00;99.90;;;;;;4935514;29;20654;-72
2021/01/15 03:55:41;;;;;;;11.15;8.98;;;2.10;99.90;;;;;;4945893;28;20203;-72
2021/01/15 03:58:08;;;;;;;12.02;8.93;;;2.10;99.90;;;;;;4928866;29;20932;-72
2021/01/15 04:00:34;;;;;;;16.58;9.95;;;2.00;99.90;;;;;;4951990;29;20272;-72
2021/01/15 04:03:00;;;;;;;13.93;10.10;;;2.00;99.90;;;;;;4952220;29;20608;-72
2021/01/15 04:05:27;;;;;;;16.13;10.68;;;1.90;99.90;;;;;;4940393;29;20212;-72
2021/01/15 04:07:53;;;;;;;15.77;9.73;;;2.20;99.90;;;;;;4941927;29;20695;-72
2021/01/15 04:10:19;;;;;;;14.77;9.73;;;2.10;99.90;;;;;;4951089;28;20738;-72
2021/01/15 04:12:48;;;;;;;16.25;10.98;;;2.30;99.90;;;;;;4935548;29;20197;-72
2021/01/15 04:15:19;;;;;;;15.85;10.73;;;1.60;99.90;;;;;;4935832;29;20183;-72
2021/01/15 04:17:45;;;;;;;14.90;10.40;;;2.10;99.90;;;;;;4943569;29;20702;-72
2021/01/15 04:20:14;;;;;;;19.23;11.55;;;1.90;99.90;;;;;;4939397;29;20204;-72
2021/01/15 04:22:49;;;;;;;13.70;10.63;;;2.10;99.90;;;;;;4938876;29;20552;-72
2021/01/15 04:25:15;;;;;;;20.60;12.80;;;2.10;99.90;;;;;;4920718;29;20199;-72
2021/01/15 04:27:42;;;;;;;18.50;11.13;;;2.00;99.90;;;;;;4943671;29;20216;-72
2021/01/15 04:30:13;;;;;;;18.73;12.75;;;2.10;99.90;;;;;;4950604;28;20208;-72
2021/01/15 04:32:49;;;;;;;19.15;11.20;;;1.90;99.90;;;;;;4953096;28;20234;-72
2021/01/15 04:35:18;;;;;;;21.65;13.90;;;2.10;99.90;;;;;;4957322;28;20240;-72
2021/01/15 04:37:44;;;;;;;21.08;12.27;;;2.30;99.90;;;;;;4930079;29;20208;-72
2021/01/15 04:40:13;;;;;;;15.80;11.63;;;2.30;99.90;;;;;;4939051;29;20254;-72
2021/01/15 04:42:44;;;;;;;18.52;11.70;;;2.20;99.90;;;;;;4940964;29;20211;-72
2021/01/15 04:45:12;;;;;;;19.83;11.18;;;2.10;99.90;;;;;;4936789;29;20208;-72
2021/01/15 04:47:46;;;;;;;20.67;12.60;;;2.10;99.90;;;;;;4947172;29;20212;-72
2021/01/15 04:50:15;;;;;;;19.25;12.43;;;2.20;99.90;;;;;;4944813;29;20239;-73
2021/01/15 04:52:46;;;;;;;17.20;12.50;;;2.40;99.90;;;;;;4938623;29;20192;-72
2021/01/15 04:55:25;;;;;;;24.20;12.88;;;2.20;99.90;;;;;;4953677;28;20200;-72
2021/01/15 04:57:55;;;;;;;22.10;13.00;;;2.20;99.90;;;;;;4942348;29;20562;-72
2021/01/15 05:00:25;;;;;;;19.65;12.90;;;2.30;99.90;;;;;;4944663;29;20278;-72
2021/01/15 05:02:52;;;;;;;21.05;14.43;;;2.00;99.90;;;;;;4940848;29;20260;-72
2021/01/15 05:05:26;;;;;;;23.40;13.85;;;1.90;99.90;;;;;;4919141;29;20222;-72
2021/01/15 05:08:15;;;;;;;19.58;13.57;;;2.10;99.90;;;;;;4947160;28;20252;-72
2021/01/15 05:10:47;;;;;;;18.02;12.25;;;2.20;99.90;;;;;;4944637;29;20216;-72
2021/01/15 05:13:15;;;;;;;20.00;12.70;;;2.00;99.90;;;;;;4953777;28;20203;-72
2021/01/15 05:15:46;;;;;;;24.58;13.77;;;2.00;99.90;;;;;;4945594;29;20211;-72
2021/01/15 05:18:13;;;;;;;25.27;12.80;;;2.10;99.90;;;;;;4948671;29;20291;-72
2021/01/15 05:20:39;;;;;;;20.00;14.07;;;2.00;99.90;;;;;;4943126;28;20184;-72
2021/01/15 05:23:07;;;;;;;24.73;13.40;;;2.20;99.90;;;;;;4941253;29;20563;-72
2021/01/15 05:25:45;;;;;;;19.48;13.55;;;2.20;99.90;;;;;;4943737;29;20220;-73
2021/01/15 05:28:14;;;;;;;18.30;12.57;;;2.00;99.90;;;;;;4947014;28;20744;-72
2021/01/15 05:30:47;;;;;;;19.80;13.75;;;2.20;99.90;;;;;;4916616;29;20231;-73
2021/01/15 05:33:15;;;;;;;20.20;13.18;;;2.00;99.90;;;;;;4933117;29;20224;-74
2021/01/15 05:35:45;;;;;;;18.77;13.95;;;1.90;99.90;;;;;;4926884;29;20199;-74
2021/01/15 05:38:14;;;;;;;26.95;14.05;;;2.10;99.90;;;;;;4950578;29;20219;-74
2021/01/15 05:40:50;;;;;;;20.38;13.48;;;2.10;99.90;;;;;;4935247;29;20599;-75
2021/01/15 05:43:32;;;;;;;22.52;14.30;;;2.00;99.90;;;;;;4942362;29;20206;-74
2021/01/15 05:46:20;;;;;;;23.67;14.60;;;2.20;99.90;;;;;;4928001;29;20537;-74
2021/01/15 05:48:53;;;;;;;20.83;13.65;;;2.10;99.90;;;;;;4950179;29;20255;-74
2021/01/15 05:51:28;;;;;;;25.10;14.38;;;2.20;99.90;;;;;;4945245;28;20222;-75
2021/01/15 05:53:55;;;;;;;21.77;14.50;;;2.30;99.90;;;;;;4940409;29;20192;-74
2021/01/15 05:56:23;;;;;;;22.15;14.30;;;2.10;99.90;;;;;;4933505;29;20192;-75
2021/01/15 05:59:05;;;;;;;22.08;14.88;;;2.30;99.90;;;;;;4932711;29;20669;-75
2021/01/15 06:01:39;;;;;;;28.25;14.95;;;2.20;99.90;;;;;;4938498;29;20198;-75
2021/01/15 06:04:06;;;;;;;21.75;14.80;;;2.10;99.90;;;;;;4939818;29;20191;-76
2021/01/15 06:06:34;;;;;;;27.17;16.10;;;1.70;99.90;;;;;;4934586;29;20590;-75
2021/01/15 06:09:00;;;;;;;21.70;14.35;;;2.20;99.90;;;;;;4946342;28;20208;-75
2021/01/15 06:11:28;;;;;;;28.05;15.73;;;2.10;99.90;;;;;;4915518;29;20185;-74
2021/01/15 06:13:54;;;;;;;25.02;15.77;;;2.10;99.90;;;;;;4940009;29;20785;-75
2021/01/15 06:16:23;;;;;;;26.10;15.50;;;2.10;99.90;;;;;;4941002;29;20196;-74
2021/01/15 06:18:58;;;;;;;21.67;14.77;;;2.20;99.90;;;;;;4943386;29;20206;-75
2021/01/15 06:21:34;;;;;;;24.02;15.05;;;2.10;99.90;;;;;;4952268;29;20188;-75
2021/01/15 06:24:05;;;;;;;22.48;15.25;;;2.20;99.90;;;;;;4931592;29;20187;-75
2021/01/15 06:26:40;;;;;;;27.15;15.60;;;2.00;99.90;;;;;;4944097;28;20198;-75
2021/01/15 06:29:16;;;;;;;24.20;15.10;;;2.30;99.90;;;;;;4943686;29;20211;-75
2021/01/15 06:31:51;;;;;;;23.40;15.13;;;2.20;99.90;;;;;;4940443;29;20223;-75
2021/01/15 06:34:21;;;;;;;25.65;15.55;;;2.10;99.90;;;;;;4937317;28;20210;-79
2021/01/15 06:36:53;;;;;;;23.50;14.95;;;2.00;99.90;;;;;;4933167;29;20567;-76
2021/01/15 06:39:21;;;;;;;25.70;15.65;;;2.10;99.90;;;;;;4916698;29;20212;-77
2021/01/15 06:41:59;;;;;;;26.73;14.77;;;1.70;99.90;;;;;;4941768;29;20208;-76
2021/01/15 06:44:25;;;;;;;29.38;16.98;;;2.10;99.90;;;;;;4942226;29;20196;-77
2021/01/15 06:46:54;;;;;;;25.92;15.88;;;2.10;99.90;;;;;;4939035;29;20188;-77
2021/01/15 06:49:33;;;;;;;24.80;16.67;;;2.30;99.90;;;;;;4944283;28;20432;-76
2021/01/15 06:52:12;;;;;;;28.15;18.33;;;2.00;99.90;;;;;;4937850;29;20286;-76
2021/01/15 06:54:45;;;;;;;28.40;17.00;;;1.50;99.90;;;;;;4937498;29;20287;-76
2021/01/15 06:57:15;;;;;;;30.95;17.30;;;2.00;99.90;;;;;;4936861;29;20603;-76
2021/01/15 06:59:50;;;;;;;30.17;17.75;;;2.10;99.90;;;;;;4902090;29;20196;-76
2021/01/15 07:02:28;;;;;;;29.38;16.20;;;2.30;99.90;;;;;;4935065;29;20320;-76
2021/01/15 07:05:02;;;;;;;25.80;16.23;;;2.10;99.90;;;;;;4937539;29;20254;-76
2021/01/15 07:07:32;;;;;;;40.47;23.25;;;2.20;99.90;;;;;;4936380;28;20270;-75
2021/01/15 07:10:04;;;;;;;30.92;18.10;;;2.10;99.90;;;;;;4925820;29;20292;-75
2021/01/15 07:12:42;;;;;;;26.70;16.77;;;2.20;99.90;;;;;;4924999;29;20188;-75
2021/01/15 07:15:14;;;;;;;30.95;20.08;;;2.10;99.90;;;;;;4908719;29;20343;-76
2021/01/15 07:17:49;;;;;;;32.00;19.55;;;1.90;99.90;;;;;;4910792;29;20247;-76
2021/01/15 07:20:17;;;;;;;31.33;18.02;;;1.70;99.90;;;;;;4919263;29;20784;-75
2021/01/15 07:23:11;;;;;;;38.22;24.65;;;2.10;99.90;;;;;;4938152;29;20243;-76
2021/01/15 07:25:38;;;;;;;31.48;18.60;;;2.10;99.90;;;;;;4932989;29;20284;-76
2021/01/15 07:28:04;;;;;;;34.17;23.42;;;1.90;99.90;;;;;;4931865;29;20665;-78
2021/01/15 07:30:31;;;;;;;30.15;20.48;;;1.90;99.90;;;;;;4927632;29;20257;-77
2021/01/15 07:33:06;;;;;;;29.50;18.55;;;2.00;99.90;;;;;;4934926;29;20223;-76
2021/01/15 07:35:36;;;;;;;26.95;18.05;;;2.10;99.90;;;;;;4944057;29;20185;-76
2021/01/15 07:38:11;;;;;;;28.80;17.50;;;2.30;99.90;;;;;;4918886;29;20215;-76
2021/01/15 07:40:37;;;;;;;26.23;15.80;;;1.60;99.90;;;;;;4928350;29;20219;-76
2021/01/15 07:43:28;;;;;;;28.95;16.70;;;2.00;99.90;;;;;;4943351;29;20555;-77
2021/01/15 07:46:02;;;;;;;28.77;16.48;;;1.90;99.90;;;;;;4950481;28;20279;-76
2021/01/15 07:48:31;;;;;;;23.80;15.88;;;1.70;99.90;;;;;;4934612;29;20251;-76
2021/01/15 07:51:13;;;;;;;26.88;16.35;;;2.00;99.90;;;;;;4947564;29;20212;-75
2021/01/15 07:53:41;;;;;;;25.02;16.05;;;2.20;99.90;;;;;;4934843;29;20683;-76
2021/01/15 07:56:07;;;;;;;31.13;17.10;;;2.00;99.90;;;;;;4936454;29;20220;-76
2021/01/15 07:58:37;;;;;;;36.40;20.80;;;2.20;99.90;;;;;;4948768;28;20223;-75
2021/01/15 08:01:08;;;;;;;40.13;24.67;;;2.20;99.90;;;;;;4947378;29;20196;-75
2021/01/15 08:03:47;;;;;;;30.38;17.02;;;2.10;99.90;;;;;;4934267;29;20200;-76
2021/01/15 08:06:16;;;;;;;29.23;17.80;;;2.00;99.90;;;;;;4921750;29;20196;-77
2021/01/15 08:09:06;;;;;;;28.90;18.35;;;2.00;99.90;;;;;;4940798;29;20215;-75
2021/01/15 08:11:36;;;;;;;27.40;17.77;;;1.80;99.90;;;;;;4937862;29;20188;-75
2021/01/15 08:14:14;;;;;;;27.50;17.48;;;2.00;99.90;;;;;;4940656;29;20192;-75
2021/01/15 08:16:49;;;;;;;31.25;15.52;;;2.10;99.90;;;;;;4910729;29;20215;-77
2021/01/15 08:19:21;;;;;;;29.42;16.65;;;2.10;99.90;;;;;;4938400;29;20589;-75
2021/01/15 08:21:50;;;;;;;31.40;17.42;;;1.90;99.90;;;;;;4937543;29;20280;-77
2021/01/15 08:24:19;;;;;;;26.98;17.25;;;1.80;99.90;;;;;;4929146;29;20200;-76
2021/01/15 08:26:55;;;;;;;25.55;15.70;;;1.50;99.90;;;;;;4931660;29;20681;-76
2021/01/15 08:29:26;;;;;;;29.85;17.15;;;2.20;99.90;;;;;;4944197;29;20592;-76
2021/01/15 08:31:58;;;;;;;29.38;16.70;;;2.10;99.90;;;;;;4924766;28;20223;-76
2021/01/15 08:34:35;;;;;;;30.00;17.73;;;2.20;99.90;;;;;;4948150;28;20640;-77
2021/01/15 08:37:04;;;;;;;25.27;16.50;;;1.70;99.90;;;;;;4931101;29;20188;-77
2021/01/15 08:39:49;;;;;;;23.98;16.40;;;1.80;99.90;;;;;;4906418;29;20258;-76
2021/01/15 08:42:17;;;;;;;28.75;16.58;;;2.30;99.90;;;;;;4933112;29;20220;-75
2021/01/15 08:44:47;;;;;;;29.15;16.92;;;2.60;99.90;;;;;;4943271;28;20195;-76
2021/01/15 08:47:17;;;;;;;26.60;15.93;;;2.60;99.90;;;;;;4921823;29;20224;-74
2021/01/15 08:49:56;;;;;;;25.02;15.23;;;2.50;99.90;;;;;;4938216;29;20213;-74
2021/01/15 08:52:26;;;;;;;29.42;17.30;;;2.40;99.90;;;;;;4928527;29;21441;-72
2021/01/15 08:54:55;;;;;;;29.35;16.75;;;2.80;99.90;;;;;;4946305;29;20669;-72
2021/01/15 08:57:29;;;;;;;27.90;16.08;;;2.70;99.90;;;;;;4930105;29;20607;-72
2021/01/15 08:59:55;;;;;;;25.60;17.40;;;2.20;99.90;;;;;;4929962;29;20227;-72
2021/01/15 09:02:22;;;;;;;26.73;15.07;;;2.80;99.90;;;;;;4945254;28;20316;-74
2021/01/15 09:04:54;;;;;;;24.27;16.60;;;2.70;99.90;;;;;;4929246;29;20208;-72
2021/01/15 09:07:21;;;;;;;36.70;17.38;;;2.40;99.90;;;;;;4936954;29;20634;-72
2021/01/15 09:09:49;;;;;;;25.60;17.02;;;2.60;99.90;;;;;;4943231;28;20251;-72
2021/01/15 09:12:20;;;;;;;29.55;18.05;;;2.60;99.90;;;;;;4937097;29;20191;-74
2021/01/15 09:14:48;;;;;;;25.77;16.40;;;2.30;99.90;;;;;;4933712;29;20265;-73
2021/01/15 09:17:14;;;;;;;27.33;17.10;;;2.40;99.90;;;;;;4938021;29;20197;-74
2021/01/15 09:19:41;;;;;;;27.25;16.45;;;2.40;99.90;;;;;;4937326;29;20200;-73
2021/01/15 09:22:17;;;;;;;38.67;21.45;;;2.40;99.90;;;;;;4935799;29;20204;-74
2021/01/15 09:24:45;;;;;;;38.85;22.42;;;2.60;99.90;;;;;;4911676;29;20743;-73
2021/01/15 09:27:11;;;;;;;28.35;18.50;;;2.50;99.90;;;;;;4959689;28;20215;-73
2021/01/15 09:29:43;;;;;;;27.67;16.95;;;2.60;99.90;;;;;;4938497;29;20646;-73
2021/01/15 09:32:10;;;;;;;32.80;18.85;;;2.40;99.90;;;;;;4932465;29;20185;-73
2021/01/15 09:34:38;;;;;;;26.95;16.00;;;2.50;99.90;;;;;;4929099;29;20254;-74
2021/01/15 09:37:05;;;;;;;25.52;16.80;;;2.30;99.90;;;;;;4924826;29;20184;-73
2021/01/15 09:39:33;;;;;;;28.10;17.20;;;2.50;99.90;;;;;;4913570;29;20560;-73
2021/01/15 09:41:59;;;;;;;31.67;17.05;;;2.30;99.90;;;;;;4946123;28;20534;-73
2021/01/15 09:44:28;;;;;;;27.85;16.85;;;2.60;99.90;;;;;;4928986;28;20204;-74
2021/01/15 09:47:01;;;;;;;29.20;18.77;;;2.50;99.90;;;;;;4934278;29;20188;-74
2021/01/15 09:49:35;;;;;;;26.95;17.52;;;2.30;99.90;;;;;;4945563;28;20583;-75
2021/01/15 09:52:20;;;;;;;27.38;15.57;;;2.80;99.90;;;;;;4928703;29;20716;-74
2021/01/15 09:54:46;;;;;;;32.80;16.67;;;2.50;99.90;;;;;;4934017;29;20275;-74
2021/01/15 09:57:12;;;;;;;22.83;15.60;;;2.70;99.90;;;;;;4921676;29;20193;-75
2021/01/15 09:59:38;;;;;;;23.63;14.45;;;2.60;99.90;;;;;;4939904;29;20201;-74
2021/01/15 10:02:04;;;;;;;32.97;16.00;;;2.60;99.90;;;;;;4922263;29;20542;-75
2021/01/15 10:04:35;;;;;;;26.35;16.27;;;2.90;99.90;;;;;;4944954;29;20747;-74
2021/01/15 10:07:03;;;;;;;23.30;14.88;;;2.80;99.90;;;;;;4924913;29;20199;-75
2021/01/15 10:09:29;;;;;;;27.40;16.05;;;3.00;99.90;;;;;;4953417;28;20277;-75
2021/01/15 10:11:56;;;;;;;19.73;12.75;;;3.00;99.90;;;;;;4913459;29;20204;-76
2021/01/15 10:14:22;;;;;;;19.17;12.65;;;3.20;99.90;;;;;;4930392;29;20196;-76
2021/01/15 10:16:54;;;;;;;21.25;12.93;;;3.10;99.90;;;;;;4931540;28;20192;-75
2021/01/15 10:19:20;;;;;;;20.27;13.35;;;3.00;99.90;;;;;;4929267;29;20295;-75
2021/01/15 10:21:47;;;;;;;24.63;13.93;;;3.10;99.90;;;;;;4943871;29;20258;-76
2021/01/15 10:24:14;;;;;;;18.23;12.27;;;3.10;99.90;;;;;;4937644;29;20592;-75
2021/01/15 10:26:41;;;;;;;15.70;11.82;;;2.90;99.90;;;;;;4945588;28;20216;-76
2021/01/15 10:29:10;;;;;;;20.10;13.10;;;3.30;99.90;;;;;;4951466;28;20352;-75
2021/01/15 10:31:56;;;;;;;18.45;12.00;;;3.40;99.90;;;;;;4957991;28;20188;-76
2021/01/15 10:34:23;;;;;;;18.90;11.05;;;3.50;99.90;;;;;;4934302;29;20317;-75
2021/01/15 10:36:51;;;;;;;19.63;11.60;;;3.60;99.90;;;;;;4936765;29;20188;-76
2021/01/15 10:39:18;;;;;;;14.90;10.75;;;3.70;99.90;;;;;;4924946;29;20205;-76
2021/01/15 10:41:52;;;;;;;18.73;12.23;;;3.70;99.90;;;;;;4942164;29;20215;-76
2021/01/15 10:44:21;;;;;;;17.67;10.65;;;3.80;99.90;;;;;;4938525;29;20276;-76
2021/01/15 10:46:51;;;;;;;16.95;12.10;;;3.70;99.90;;;;;;4920894;29;20568;-76
2021/01/15 10:49:22;;;;;;;15.02;10.10;;;3.90;99.90;;;;;;4934477;29;20216;-75
2021/01/15 10:51:54;;;;;;;12.57;9.73;;;3.80;99.90;;;;;;4937690;29;20554;-77
2021/01/15 10:54:20;;;;;;;14.07;10.52;;;3.80;99.90;;;;;;4912758;29;20681;-76
2021/01/15 10:56:48;;;;;;;16.63;10.20;;;4.00;99.90;;;;;;4942084;29;20288;-76
2021/01/15 10:59:15;;;;;;;14.30;10.27;;;3.90;99.90;;;;;;4942549;29;20287;-75
2021/01/15 11:01:49;;;;;;;15.02;11.05;;;3.90;99.90;;;;;;4934265;29;20251;-76
2021/01/15 11:04:16;;;;;;;14.48;10.45;;;4.00;99.90;;;;;;4952937;28;20232;-77
2021/01/15 11:06:45;;;;;;;13.50;10.15;;;4.20;99.90;;;;;;4934608;29;20297;-74
2021/01/15 11:09:16;;;;;;;12.63;9.90;;;4.30;99.90;;;;;;4937191;29;20208;-76
2021/01/15 11:11:49;;;;;;;14.65;10.77;;;4.20;99.90;;;;;;4942826;29;20267;-75
2021/01/15 11:14:18;;;;;;;12.23;9.48;;;4.20;99.90;;;;;;4929334;29;20188;-79
2021/01/15 11:16:44;;;;;;;18.52;11.00;;;4.20;99.90;;;;;;4926927;29;20188;-80
2021/01/15 11:19:11;;;;;;;17.95;11.65;;;4.20;99.90;;;;;;4945379;29;20347;-81
2021/01/15 11:21:38;;;;;;;15.10;10.15;;;4.50;99.90;;;;;;4910393;29;20223;-80
2021/01/15 11:24:04;;;;;;;14.65;11.35;;;4.30;99.90;;;;;;4918686;29;20231;-75
2021/01/15 11:26:32;;;;;;;15.45;11.73;;;4.30;99.90;;;;;;4922912;29;20198;-78
2021/01/15 11:29:03;;;;;;;14.18;11.10;;;4.10;99.90;;;;;;4948352;29;20200;-76
2021/01/15 11:31:30;;;;;;;15.68;11.90;;;4.20;99.90;;;;;;4949024;29;20247;-78
2021/01/15 11:33:57;;;;;;;15.25;11.30;;;4.30;99.90;;;;;;4932230;29;20223;-79
2021/01/15 11:36:30;;;;;;;14.75;11.35;;;3.80;99.90;;;;;;4925761;29;20605;-78
2021/01/15 11:39:01;;;;;;;13.85;11.45;;;4.40;99.90;;;;;;4927100;29;20259;-79
2021/01/15 11:41:28;;;;;;;17.70;12.95;;;4.50;99.90;;;;;;4939020;29;20260;-78
2021/01/15 11:43:54;;;;;;;17.15;12.50;;;4.40;99.90;;;;;;4948364;29;20196;-78
2021/01/15 11:46:20;;;;;;;15.60;11.90;;;4.40;99.90;;;;;;4924624;29;20193;-77
2021/01/15 11:48:47;;;;;;;17.50;12.05;;;4.40;99.90;;;;;;4923688;29;20220;-77
2021/01/15 11:51:15;;;;;;;17.08;12.40;;;4.40;99.90;;;;;;4931740;29;20217;-77
2021/01/15 11:53:43;;;;;;;18.20;12.45;;;4.30;99.90;;;;;;4953791;28;20184;-77
2021/01/15 11:56:09;;;;;;;17.55;12.13;;;4.10;99.90;;;;;;4950948;29;20199;-79
2021/01/15 11:58:36;;;;;;;15.27;11.77;;;3.80;99.90;;;;;;4913392;29;20291;-75
2021/01/15 12:01:05;;;;;;;19.60;12.50;;;4.20;99.90;;;;;;4933277;29;20698;-76
2021/01/15 12:03:33;;;;;;;19.95;11.93;;;4.10;99.90;;;;;;4909251;29;20259;-75
2021/01/15 12:06:00;;;;;;;21.52;12.40;;;4.10;99.90;;;;;;4937668;29;20199;-75
2021/01/15 12:08:29;;;;;;;18.30;12.00;;;4.10;99.90;;;;;;4924094;29;20219;-75
2021/01/15 12:10:59;;;;;;;16.65;12.82;;;4.10;99.90;;;;;;4942571;29;20220;-75
2021/01/15 12:13:26;;;;;;;14.55;11.80;;;4.00;99.90;;;;;;4936785;29;20671;-75
2021/01/15 12:15:53;;;;;;;19.05;13.00;;;4.00;99.90;;;;;;4946577;29;20271;-75
2021/01/15 12:18:20;;;;;;;18.40;13.15;;;3.90;99.90;;;;;;4935263;29;20236;-75
2021/01/15 12:20:49;;;;;;;15.88;12.77;;;4.10;99.90;;;;;;4933351;29;20228;-76
2021/01/15 12:23:18;;;;;;;26.25;13.10;;;4.00;99.90;;;;;;4938798;29;20212;-75
2021/01/15 12:25:44;;;;;;;19.25;12.95;;;3.80;99.90;;;;;;4938049;28;20199;-76
2021/01/15 12:28:12;;;;;;;20.23;14.07;;;3.70;99.90;;;;;;4947955;28;20216;-76
2021/01/15 12:30:39;;;;;;;21.45;12.98;;;3.90;99.90;;;;;;4916542;29;20200;-76
2021/01/15 12:33:13;;;;;;;19.52;12.90;;;3.80;99.90;;;;;;4923991;29;20212;-76
2021/01/15 12:35:41;;;;;;;19.00;12.73;;;3.60;99.90;;;;;;4941854;29;20187;-75
2021/01/15 12:38:12;;;;;;;18.98;11.30;;;3.60;99.90;;;;;;4944071;29;21931;-76
2021/01/15 12:40:39;;;;;;;26.15;14.10;;;3.80;99.90;;;;;;4931811;29;20208;-75
2021/01/15 12:43:07;;;;;;;20.85;13.50;;;3.70;99.90;;;;;;4936249;29;20556;-76
2021/01/15 12:45:38;;;;;;;25.05;15.48;;;3.50;99.90;;;;;;4939743;29;20200;-76
2021/01/15 12:48:06;;;;;;;29.98;17.25;;;3.30;99.90;;;;;;4918533;29;20891;-76
2021/01/15 12:50:32;;;;;;;29.25;16.27;;;3.30;99.90;;;;;;4924747;29;20251;-79
2021/01/15 12:52:59;;;;;;;29.48;16.10;;;3.40;99.90;;;;;;4952269;29;20728;-76
2021/01/15 12:55:26;;;;;;;29.65;17.58;;;3.20;99.90;;;;;;4946326;29;20199;-76
2021/01/15 12:57:57;;;;;;;28.58;17.25;;;3.30;99.90;;;;;;4946523;29;20271;-78